createdAt,value
2022-12-18T00:00:14.519Z,-1.48
2022-12-18T00:01:13.522Z,-1.46
2022-12-18T00:02:13.772Z,-1.47
2022-12-18T00:03:27.850Z,-1.48
2022-12-18T00:04:13.702Z,-1.48
2022-12-18T00:05:13.777Z,-1.45
2022-12-18T00:06:13.754Z,-1.46
2022-12-18T00:07:13.878Z,-1.47
2022-12-18T00:08:13.674Z,-1.46
2022-12-18T00:09:13.807Z,-1.44
2022-12-18T00:10:15.504Z,-1.47
2022-12-18T00:11:13.717Z,-1.46
2022-12-18T00:13:13.642Z,-1.46
2022-12-18T00:14:13.322Z,-1.48
2022-12-18T00:15:13.836Z,-1.48
2022-12-18T00:16:13.467Z,-1.48
2022-12-18T00:17:14.573Z,-1.49
2022-12-18T00:18:16.101Z,-1.49
2022-12-18T00:19:13.567Z,-1.48
2022-12-18T00:20:14.437Z,-1.48
2022-12-18T00:21:14.263Z,-1.49
2022-12-18T00:22:13.845Z,-1.50
2022-12-18T00:23:13.629Z,-1.51
2022-12-18T00:24:13.506Z,-1.49
2022-12-18T00:25:13.420Z,-1.5
2022-12-18T00:26:13.877Z,-1.5
2022-12-18T00:27:13.677Z,-1.49
2022-12-18T00:28:14.203Z,-1.5
2022-12-18T00:29:13.766Z,-1.50
2022-12-18T00:30:13.673Z,-1.51
2022-12-18T00:31:14.200Z,-1.52
2022-12-18T00:32:13.871Z,-1.53
2022-12-18T00:33:14.344Z,-1.53
2022-12-18T00:34:13.809Z,-1.53
2022-12-18T00:35:13.536Z,-1.54
2022-12-18T00:36:14.211Z,-1.56
2022-12-18T00:37:19.737Z,-1.58
2022-12-18T00:38:13.860Z,-1.58
2022-12-18T00:39:13.789Z,-1.58
2022-12-18T00:40:13.953Z,-1.57
2022-12-18T00:41:13.639Z,-1.54
2022-12-18T00:42:13.802Z,-1.54
2022-12-18T00:43:13.351Z,-1.53
2022-12-18T00:44:14.147Z,-1.57
2022-12-18T00:45:14.326Z,-1.56
2022-12-18T00:46:14.306Z,-1.57
2022-12-18T00:47:13.767Z,-1.56
2022-12-18T00:48:13.710Z,-1.59
2022-12-18T00:49:13.485Z,-1.61
2022-12-18T00:50:13.342Z,-1.61
2022-12-18T00:51:13.777Z,-1.62
2022-12-18T00:52:13.480Z,-1.61
2022-12-18T00:53:14.186Z,-1.65
2022-12-18T00:54:13.812Z,-1.65
2022-12-18T00:55:13.735Z,-1.64
2022-12-18T00:56:13.694Z,-1.62
2022-12-18T00:57:13.894Z,-1.62
2022-12-18T00:58:13.697Z,-1.63
2022-12-18T00:59:13.315Z,-1.65
2022-12-18T01:00:14.840Z,-1.65
2022-12-18T01:01:15.789Z,-1.67
2022-12-18T01:02:14.528Z,-1.64
2022-12-18T01:03:13.577Z,-1.63
2022-12-18T01:04:14.298Z,-1.71
2022-12-18T01:05:14.230Z,-1.74
2022-12-18T01:06:13.852Z,-1.74
2022-12-18T01:07:13.300Z,-1.76
2022-12-18T01:08:13.748Z,-1.79
2022-12-18T01:09:14.166Z,-1.77
2022-12-18T01:10:13.561Z,-1.77
2022-12-18T01:11:14.112Z,-1.75
2022-12-18T01:12:13.522Z,-1.74
2022-12-18T01:13:13.694Z,-1.76
2022-12-18T01:14:13.104Z,-1.77
2022-12-18T01:15:13.695Z,-1.78
2022-12-18T01:16:13.969Z,-1.76
2022-12-18T01:17:13.604Z,-1.78
2022-12-18T01:18:14.026Z,-1.78
2022-12-18T01:19:13.454Z,-1.80
2022-12-18T01:20:13.947Z,-1.83
2022-12-18T01:21:13.799Z,-1.83
2022-12-18T01:22:13.248Z,-1.82
2022-12-18T01:23:13.662Z,-1.84
2022-12-18T01:24:14.050Z,-1.83
2022-12-18T01:25:13.372Z,-1.82
2022-12-18T01:26:13.647Z,-1.79
2022-12-18T01:27:13.688Z,-1.79
2022-12-18T01:28:13.754Z,-1.83
2022-12-18T01:29:13.892Z,-1.80
2022-12-18T01:30:14.091Z,-1.81
2022-12-18T01:31:13.533Z,-1.84
2022-12-18T01:32:13.664Z,-1.85
2022-12-18T01:33:13.386Z,-1.87
2022-12-18T01:34:13.157Z,-1.86
2022-12-18T01:35:13.639Z,-1.86
2022-12-18T01:36:13.904Z,-1.86
2022-12-18T01:37:13.234Z,-1.85
2022-12-18T01:38:13.000Z,-1.85
2022-12-18T01:39:13.977Z,-1.86
2022-12-18T01:40:13.899Z,-1.86
2022-12-18T01:41:12.932Z,-1.85
2022-12-18T01:42:14.073Z,-1.82
2022-12-18T01:43:13.252Z,-1.79
2022-12-18T01:44:13.748Z,-1.81
2022-12-18T01:45:13.414Z,-1.81
2022-12-18T01:46:13.311Z,-1.83
2022-12-18T01:47:13.801Z,-1.82
2022-12-18T01:48:13.856Z,-1.82
2022-12-18T01:49:13.766Z,-1.83
2022-12-18T01:50:13.162Z,-1.83
2022-12-18T01:51:13.519Z,-1.85
2022-12-18T01:52:13.697Z,-1.84
2022-12-18T01:53:13.977Z,-1.87
2022-12-18T01:54:14.076Z,-1.90
2022-12-18T01:55:13.402Z,-1.93
2022-12-18T01:56:13.238Z,-1.93
2022-12-18T01:57:13.405Z,-1.96
2022-12-18T01:58:13.628Z,-1.98
2022-12-18T01:59:13.945Z,-1.97
2022-12-18T02:00:14.780Z,-1.98
2022-12-18T02:01:14.259Z,-1.97
2022-12-18T02:02:14.162Z,-1.94
2022-12-18T02:03:13.774Z,-1.93
2022-12-18T02:04:13.270Z,-1.92
2022-12-18T02:05:13.741Z,-1.94
2022-12-18T02:06:13.852Z,-1.94
2022-12-18T02:07:13.108Z,-1.94
2022-12-18T02:08:13.154Z,-1.96
2022-12-18T02:09:13.465Z,-1.94
2022-12-18T02:10:13.828Z,-1.96
2022-12-18T02:11:13.934Z,-1.97
2022-12-18T02:12:18.057Z,-2
2022-12-18T02:13:13.011Z,-1.99
2022-12-18T02:14:13.041Z,-1.98
2022-12-18T02:15:13.141Z,-1.99
2022-12-18T02:16:13.230Z,-1.99
2022-12-18T02:17:13.596Z,-2.00
2022-12-18T02:18:13.669Z,-2.03
2022-12-18T02:19:13.884Z,-2.04
2022-12-18T02:20:13.252Z,-2.02
2022-12-18T02:21:13.314Z,-2.05
2022-12-18T02:22:13.789Z,-2.05
2022-12-18T02:23:13.985Z,-2.06
2022-12-18T02:24:13.329Z,-2.06
2022-12-18T02:25:14.040Z,-2.06
2022-12-18T02:26:13.353Z,-2.10
2022-12-18T02:27:13.623Z,-2.07
2022-12-18T02:28:14.133Z,-2.08
2022-12-18T02:29:13.393Z,-2.09
2022-12-18T02:30:13.815Z,-2.09
2022-12-18T02:31:13.418Z,-2.09
2022-12-18T02:32:13.568Z,-2.10
2022-12-18T02:33:13.754Z,-2.13
2022-12-18T02:34:13.824Z,-2.16
2022-12-18T02:35:14.071Z,-2.15
2022-12-18T02:36:13.118Z,-2.16
2022-12-18T02:37:13.320Z,-2.14
2022-12-18T02:38:13.386Z,-2.15
2022-12-18T02:39:13.624Z,-2.15
2022-12-18T02:40:13.687Z,-2.16
2022-12-18T02:41:13.311Z,-2.17
2022-12-18T02:42:13.684Z,-2.20
2022-12-18T02:43:14.137Z,-2.22
2022-12-18T02:44:13.875Z,-2.22
2022-12-18T02:45:13.487Z,-2.25
2022-12-18T02:46:14.011Z,-2.30
2022-12-18T02:47:13.534Z,-2.33
2022-12-18T02:48:13.699Z,-2.35
2022-12-18T02:49:13.724Z,-2.38
2022-12-18T02:50:13.956Z,-2.41
2022-12-18T02:51:13.896Z,-2.44
2022-12-18T02:52:13.375Z,-2.41
2022-12-18T02:53:13.623Z,-2.45
2022-12-18T02:54:13.964Z,-2.46
2022-12-18T02:55:13.243Z,-2.47
2022-12-18T02:56:13.440Z,-2.48
2022-12-18T02:57:13.533Z,-2.50
2022-12-18T02:58:13.744Z,-2.55
2022-12-18T02:59:13.105Z,-2.57
2022-12-18T03:00:14.123Z,-2.63
2022-12-18T03:01:13.903Z,-2.63
2022-12-18T03:02:13.617Z,-2.63
2022-12-18T03:03:13.291Z,-2.61
2022-12-18T03:04:13.816Z,-2.66
2022-12-18T03:05:14.119Z,-2.64
2022-12-18T03:06:13.207Z,-2.65
2022-12-18T03:07:13.295Z,-2.63
2022-12-18T03:08:13.323Z,-2.64
2022-12-18T03:09:13.884Z,-2.67
2022-12-18T03:10:13.850Z,-2.65
2022-12-18T03:11:14.080Z,-2.65
2022-12-18T03:12:13.290Z,-2.64
2022-12-18T03:13:13.419Z,-2.61
2022-12-18T03:14:13.585Z,-2.66
2022-12-18T03:15:17.587Z,-2.62
2022-12-18T03:16:13.121Z,-2.60
2022-12-18T03:17:13.535Z,-2.64
2022-12-18T03:18:13.510Z,-2.67
2022-12-18T03:19:13.641Z,-2.70
2022-12-18T03:20:13.951Z,-2.74
2022-12-18T03:21:13.079Z,-2.69
2022-12-18T03:22:13.396Z,-2.66
2022-12-18T03:23:13.575Z,-2.62
2022-12-18T03:24:13.495Z,-2.60
2022-12-18T03:25:14.027Z,-2.56
2022-12-18T03:26:13.367Z,-2.56
2022-12-18T03:27:13.718Z,-2.57
2022-12-18T03:28:13.646Z,-2.55
2022-12-18T03:29:14.076Z,-2.56
2022-12-18T03:30:13.433Z,-2.59
2022-12-18T03:31:13.594Z,-2.59
2022-12-18T03:32:13.552Z,-2.61
2022-12-18T03:33:13.864Z,-2.60
2022-12-18T03:34:14.068Z,-2.62
2022-12-18T03:35:13.504Z,-2.63
2022-12-18T03:36:13.348Z,-2.64
2022-12-18T03:37:13.406Z,-2.66
2022-12-18T03:38:13.656Z,-2.66
2022-12-18T03:39:13.741Z,-2.66
2022-12-18T03:40:13.866Z,-2.64
2022-12-18T03:41:13.245Z,-2.65
2022-12-18T03:42:13.333Z,-2.67
2022-12-18T03:43:13.623Z,-2.69
2022-12-18T03:44:13.755Z,-2.72
2022-12-18T03:45:14.422Z,-2.73
2022-12-18T03:46:13.991Z,-2.72
2022-12-18T03:47:13.597Z,-2.72
2022-12-18T03:48:13.727Z,-2.73
2022-12-18T03:49:13.917Z,-2.73
2022-12-18T03:50:14.023Z,-2.75
2022-12-18T03:51:13.023Z,-2.75
2022-12-18T03:52:13.231Z,-2.77
2022-12-18T03:53:13.329Z,-2.81
2022-12-18T03:54:13.398Z,-2.81
2022-12-18T03:55:13.317Z,-2.83
2022-12-18T03:56:13.316Z,-2.85
2022-12-18T03:57:13.352Z,-2.84
2022-12-18T03:58:13.402Z,-2.87
2022-12-18T03:59:13.494Z,-2.89
2022-12-18T04:00:14.219Z,-2.90
2022-12-18T04:01:13.612Z,-2.89
2022-12-18T04:02:13.865Z,-2.89
2022-12-18T04:03:13.380Z,-2.91
2022-12-18T04:04:13.824Z,-2.89
2022-12-18T04:05:14.191Z,-2.91
2022-12-18T04:06:13.224Z,-2.93
2022-12-18T04:07:13.555Z,-2.99
2022-12-18T04:08:13.496Z,-2.99
2022-12-18T04:09:13.560Z,-3
2022-12-18T04:10:13.899Z,-3.02
2022-12-18T04:11:13.720Z,-3.02
2022-12-18T04:12:13.771Z,-3.04
2022-12-18T04:13:13.287Z,-3.07
2022-12-18T04:14:17.575Z,-3.07
2022-12-18T04:15:14.141Z,-3.08
2022-12-18T04:16:13.365Z,-3.09
2022-12-18T04:17:13.441Z,-3.14
2022-12-18T04:18:13.465Z,-3.16
2022-12-18T04:19:13.564Z,-3.17
2022-12-18T04:20:13.813Z,-3.14
2022-12-18T04:21:14.365Z,-3.15
2022-12-18T04:22:13.483Z,-3.16
2022-12-18T04:23:13.483Z,-3.17
2022-12-18T04:24:13.847Z,-3.20
2022-12-18T04:25:14.181Z,-3.21
2022-12-18T04:26:13.271Z,-3.21
2022-12-18T04:27:13.584Z,-3.21
2022-12-18T04:28:13.668Z,-3.24
2022-12-18T04:29:13.020Z,-3.22
2022-12-18T04:30:13.554Z,-3.20
2022-12-18T04:31:14.047Z,-3.19
2022-12-18T04:32:13.286Z,-3.17
2022-12-18T04:33:13.696Z,-3.19
2022-12-18T04:34:13.663Z,-3.17
2022-12-18T04:35:14.079Z,-3.18
2022-12-18T04:36:13.153Z,-3.17
2022-12-18T04:37:13.348Z,-3.14
2022-12-18T04:38:13.566Z,-3.16
2022-12-18T04:39:13.967Z,-3.17
2022-12-18T04:40:13.058Z,-3.19
2022-12-18T04:41:13.247Z,-3.20
2022-12-18T04:42:13.102Z,-3.21
2022-12-18T04:43:21.587Z,-3.21
2022-12-18T04:44:13.760Z,-3.22
2022-12-18T04:45:22.265Z,-3.22
2022-12-18T04:46:13.265Z,-3.22
2022-12-18T04:47:22.001Z,-3.22
2022-12-18T04:48:13.743Z,-3.20
2022-12-18T04:49:13.801Z,-3.18
2022-12-18T04:50:12.963Z,-3.18
2022-12-18T04:51:13.093Z,-3.20
2022-12-18T04:52:13.601Z,-3.21
2022-12-18T04:53:13.754Z,-3.22
2022-12-18T04:54:13.469Z,-3.22
2022-12-18T04:55:13.747Z,-3.22
2022-12-18T04:56:13.026Z,-3.25
2022-12-18T04:57:13.191Z,-3.25
2022-12-18T04:58:12.661Z,-3.26
2022-12-18T04:59:13.792Z,-3.24
2022-12-18T05:00:14.511Z,-3.24
2022-12-18T05:01:14.128Z,-3.22
2022-12-18T05:02:13.844Z,-3.23
2022-12-18T05:03:13.750Z,-3.21
2022-12-18T05:04:13.916Z,-3.20
2022-12-18T05:05:13.422Z,-3.19
2022-12-18T05:06:13.634Z,-3.19
2022-12-18T05:07:12.992Z,-3.15
2022-12-18T05:08:13.637Z,-3.17
2022-12-18T05:09:14.093Z,-3.13
2022-12-18T05:10:13.311Z,-3.12
2022-12-18T05:11:13.436Z,-3.09
2022-12-18T05:12:13.579Z,-3.05
2022-12-18T05:13:13.738Z,-3.03
2022-12-18T05:14:13.758Z,-3.00
2022-12-18T05:15:14.120Z,-3.03
2022-12-18T05:16:13.581Z,-3.03
2022-12-18T05:17:14.146Z,-3.00
2022-12-18T05:18:13.251Z,-2.98
2022-12-18T05:19:13.462Z,-2.98
2022-12-18T05:20:14.033Z,-2.97
2022-12-18T05:21:13.583Z,-2.94
2022-12-18T05:22:13.942Z,-2.94
2022-12-18T05:23:13.372Z,-2.94
2022-12-18T05:24:13.753Z,-2.91
2022-12-18T05:25:14.185Z,-2.89
2022-12-18T05:26:13.415Z,-2.86
2022-12-18T05:27:13.406Z,-2.83
2022-12-18T05:28:13.550Z,-2.83
2022-12-18T05:29:13.624Z,-2.82
2022-12-18T05:30:13.875Z,-2.81
2022-12-18T05:31:13.327Z,-2.77
2022-12-18T05:32:13.635Z,-2.75
2022-12-18T05:33:13.999Z,-2.77
2022-12-18T05:34:13.318Z,-2.78
2022-12-18T05:35:14.094Z,-2.76
2022-12-18T05:36:13.204Z,-2.73
2022-12-18T05:37:13.824Z,-2.73
2022-12-18T05:38:13.110Z,-2.73
2022-12-18T05:39:13.205Z,-2.74
2022-12-18T05:40:13.497Z,-2.74
2022-12-18T05:41:13.931Z,-2.74
2022-12-18T05:42:13.158Z,-2.74
2022-12-18T05:43:17.944Z,-2.70
2022-12-18T05:44:14.496Z,-2.67
2022-12-18T05:45:14.137Z,-2.70
2022-12-18T05:46:11.934Z,-2.70
2022-12-18T05:47:13.908Z,-2.69
2022-12-18T05:48:13.016Z,-2.69
2022-12-18T05:49:13.224Z,-2.70
2022-12-18T05:50:13.598Z,-2.73
2022-12-18T05:51:14.082Z,-2.71
2022-12-18T05:52:13.625Z,-2.69
2022-12-18T05:53:14.098Z,-2.63
2022-12-18T05:54:13.331Z,-2.67
2022-12-18T05:55:14.112Z,-2.65
2022-12-18T05:56:13.456Z,-2.66
2022-12-18T05:57:13.960Z,-2.66
2022-12-18T05:58:13.853Z,-2.67
2022-12-18T05:59:13.131Z,-2.67
2022-12-18T06:00:14.321Z,-2.69
2022-12-18T06:01:14.336Z,-2.68
2022-12-18T06:02:14.341Z,-2.71
2022-12-18T06:03:13.847Z,-2.72
2022-12-18T06:04:13.768Z,-2.72
2022-12-18T06:05:13.338Z,-2.73
2022-12-18T06:06:13.752Z,-2.75
2022-12-18T06:07:13.947Z,-2.77
2022-12-18T06:08:13.041Z,-2.76
2022-12-18T06:09:13.659Z,-2.78
2022-12-18T06:10:14.252Z,-2.82
2022-12-18T06:11:13.714Z,-2.82
2022-12-18T06:12:13.980Z,-2.85
2022-12-18T06:13:12.937Z,-2.89
2022-12-18T06:14:14.137Z,-2.89
2022-12-18T06:15:13.721Z,-2.91
2022-12-18T06:16:13.801Z,-2.94
2022-12-18T06:17:13.483Z,-2.95
2022-12-18T06:18:13.195Z,-2.97
2022-12-18T06:19:13.528Z,-2.98
2022-12-18T06:20:14.072Z,-3
2022-12-18T06:21:13.963Z,-3
2022-12-18T06:22:13.210Z,-2.99
2022-12-18T06:23:13.302Z,-2.99
2022-12-18T06:24:13.940Z,-3.00
2022-12-18T06:25:13.765Z,-2.97
2022-12-18T06:26:14.042Z,-2.97
2022-12-18T06:27:14.023Z,-2.96
2022-12-18T06:28:13.417Z,-2.97
2022-12-18T06:29:13.575Z,-3
2022-12-18T06:30:14.466Z,-2.97
2022-12-18T06:31:13.348Z,-2.98
2022-12-18T06:32:13.803Z,-2.97
2022-12-18T06:33:14.132Z,-3
2022-12-18T06:34:13.427Z,-3.01
2022-12-18T06:35:14.045Z,-3.01
2022-12-18T06:36:13.756Z,-3.04
2022-12-18T06:37:13.948Z,-3.08
2022-12-18T06:38:13.015Z,-3.11
2022-12-18T06:39:14.135Z,-3.09
2022-12-18T06:40:13.682Z,-3.10
2022-12-18T06:41:13.112Z,-3.09
2022-12-18T06:42:13.213Z,-3.09
2022-12-18T06:43:13.517Z,-3.12
2022-12-18T06:44:13.882Z,-3.13
2022-12-18T06:45:13.299Z,-3.13
2022-12-18T06:46:13.680Z,-3.14
2022-12-18T06:47:13.991Z,-3.16
2022-12-18T06:48:13.392Z,-3.16
2022-12-18T06:49:13.646Z,-3.17
2022-12-18T06:50:13.627Z,-3.16
2022-12-18T06:51:13.955Z,-3.17
2022-12-18T06:52:13.209Z,-3.21
2022-12-18T06:53:13.493Z,-3.22
2022-12-18T06:54:13.891Z,-3.21
2022-12-18T06:55:13.749Z,-3.22
2022-12-18T06:56:13.810Z,-3.24
2022-12-18T06:57:13.784Z,-3.24
2022-12-18T06:58:14.127Z,-3.27
2022-12-18T06:59:13.401Z,-3.28
2022-12-18T07:00:14.660Z,-3.27
2022-12-18T07:01:13.958Z,-3.26
2022-12-18T07:02:13.558Z,-3.26
2022-12-18T07:03:13.888Z,-3.29
2022-12-18T07:04:13.682Z,-3.32
2022-12-18T07:05:13.470Z,-3.32
2022-12-18T07:06:13.812Z,-3.34
2022-12-18T07:07:13.155Z,-3.33
2022-12-18T07:08:13.098Z,-3.33
2022-12-18T07:09:13.352Z,-3.38
2022-12-18T07:10:14.073Z,-3.40
2022-12-18T07:11:13.195Z,-3.39
2022-12-18T07:12:13.543Z,-3.44
2022-12-18T07:13:13.935Z,-3.45
2022-12-18T07:14:13.407Z,-3.44
2022-12-18T07:15:13.971Z,-3.43
2022-12-18T07:16:20.916Z,-3.44
2022-12-18T07:17:14.069Z,-3.45
2022-12-18T07:18:13.444Z,-3.48
2022-12-18T07:19:13.970Z,-3.47
2022-12-18T07:20:13.445Z,-3.48
2022-12-18T07:21:13.925Z,-3.48
2022-12-18T07:22:13.427Z,-3.49
2022-12-18T07:23:13.818Z,-3.50
2022-12-18T07:24:13.322Z,-3.52
2022-12-18T07:25:14.089Z,-3.50
2022-12-18T07:26:27.345Z,-3.51
2022-12-18T07:27:13.452Z,-3.52
2022-12-18T07:28:17.331Z,-3.52
2022-12-18T07:29:13.405Z,-3.53
2022-12-18T07:30:14.063Z,-3.54
2022-12-18T07:31:13.623Z,-3.55
2022-12-18T07:32:13.618Z,-3.58
2022-12-18T07:33:13.505Z,-3.57
2022-12-18T07:34:14.094Z,-3.55
2022-12-18T07:35:13.684Z,-3.55
2022-12-18T07:36:13.698Z,-3.57
2022-12-18T07:37:14.226Z,-3.58
2022-12-18T07:38:13.928Z,-3.58
2022-12-18T07:39:13.562Z,-3.63
2022-12-18T07:40:14.165Z,-3.63
2022-12-18T07:41:13.614Z,-3.64
2022-12-18T07:42:13.877Z,-3.63
2022-12-18T07:43:13.380Z,-3.62
2022-12-18T07:44:14.114Z,-3.61
2022-12-18T07:45:13.591Z,-3.61
2022-12-18T07:46:14.003Z,-3.62
2022-12-18T07:47:13.664Z,-3.60
2022-12-18T07:48:13.993Z,-3.60
2022-12-18T07:49:13.431Z,-3.61
2022-12-18T07:50:14.631Z,-3.63
2022-12-18T07:51:14.114Z,-3.60
2022-12-18T07:52:13.611Z,-3.58
2022-12-18T07:53:13.756Z,-3.58
2022-12-18T07:54:13.119Z,-3.59
2022-12-18T07:55:13.659Z,-3.58
2022-12-18T07:56:28.224Z,-3.55
2022-12-18T07:57:27.325Z,-3.56
2022-12-18T07:58:13.601Z,-3.56
2022-12-18T07:59:13.805Z,-3.56
2022-12-18T08:00:15.129Z,-3.60
2022-12-18T08:01:14.206Z,-3.57
2022-12-18T08:02:14.245Z,-3.55
2022-12-18T08:03:14.344Z,-3.51
2022-12-18T08:04:14.422Z,-3.50
2022-12-18T08:05:14.487Z,-3.49
2022-12-18T08:06:13.757Z,-3.50
2022-12-18T08:07:13.744Z,-3.51
2022-12-18T08:08:14.153Z,-3.52
2022-12-18T08:09:13.833Z,-3.49
2022-12-18T08:10:13.180Z,-3.45
2022-12-18T08:11:13.603Z,-3.42
2022-12-18T08:12:13.925Z,-3.42
2022-12-18T08:13:13.630Z,-3.38
2022-12-18T08:14:14.264Z,-3.38
2022-12-18T08:15:13.865Z,-3.36
2022-12-18T08:16:13.342Z,-3.32
2022-12-18T08:17:14.111Z,-3.30
2022-12-18T08:18:14.534Z,-3.27
2022-12-18T08:19:14.212Z,-3.26
2022-12-18T08:20:13.966Z,-3.22
2022-12-18T08:21:13.816Z,-3.19
2022-12-18T08:22:13.510Z,-3.16
2022-12-18T08:23:14.156Z,-3.14
2022-12-18T08:24:13.482Z,-3.10
2022-12-18T08:25:14.355Z,-3.08
2022-12-18T08:26:13.591Z,-3.04
2022-12-18T08:27:28.887Z,-2.98
2022-12-18T08:28:14.006Z,-2.95
2022-12-18T08:29:17.324Z,-2.90
2022-12-18T08:30:13.806Z,-2.84
2022-12-18T08:31:13.627Z,-2.81
2022-12-18T08:32:13.956Z,-2.76
2022-12-18T08:33:13.581Z,-2.70
2022-12-18T08:34:14.202Z,-2.65
2022-12-18T08:35:17.569Z,-2.61
2022-12-18T08:36:14.256Z,-2.56
2022-12-18T08:37:13.821Z,-2.50
2022-12-18T08:38:13.397Z,-2.46
2022-12-18T08:39:14.289Z,-2.39
2022-12-18T08:40:13.951Z,-2.33
2022-12-18T08:41:13.691Z,-2.30
2022-12-18T08:42:14.170Z,-2.25
2022-12-18T08:43:13.357Z,-2.23
2022-12-18T08:44:14.124Z,-2.17
2022-12-18T08:45:13.976Z,-2.09
2022-12-18T08:46:13.730Z,-2.03
2022-12-18T08:47:13.447Z,-1.99
2022-12-18T08:48:17.824Z,-1.90
2022-12-18T08:49:13.892Z,-1.85
2022-12-18T08:50:14.308Z,-1.79
2022-12-18T08:51:14.008Z,-1.77
2022-12-18T08:52:14.210Z,-1.71
2022-12-18T08:53:13.768Z,-1.62
2022-12-18T08:54:13.456Z,-1.58
2022-12-18T08:55:14.212Z,-1.5
2022-12-18T08:56:14.220Z,-1.40
2022-12-18T08:57:13.766Z,-1.29
2022-12-18T08:58:13.464Z,-1.19
2022-12-18T08:59:19.381Z,-1.11
2022-12-18T09:00:14.680Z,-1.04
2022-12-18T09:01:13.741Z,-0.94
2022-12-18T09:02:13.263Z,-0.88
2022-12-18T09:03:14.497Z,-0.79
2022-12-18T09:04:14.302Z,-0.72
2022-12-18T09:05:13.842Z,-0.64
2022-12-18T09:06:13.916Z,-0.60
2022-12-18T09:07:13.651Z,-0.53
2022-12-18T09:08:13.220Z,-0.47
2022-12-18T09:09:13.921Z,-0.38
2022-12-18T09:10:13.868Z,-0.30
2022-12-18T09:11:13.761Z,-0.25
2022-12-18T09:12:14.281Z,-0.23
2022-12-18T09:13:13.854Z,-0.22
2022-12-18T09:14:13.364Z,-0.15
2022-12-18T09:15:14.322Z,-0.09
2022-12-18T09:16:13.715Z,-0.07
2022-12-18T09:17:14.082Z,-0.02
2022-12-18T09:18:13.790Z,0.050
2022-12-18T09:19:14.411Z,0.143
2022-12-18T09:20:14.270Z,0.155
2022-12-18T09:21:14.202Z,0.155
2022-12-18T09:22:13.718Z,0.177
2022-12-18T09:23:18.511Z,0.214
2022-12-18T09:24:14.124Z,0.219
2022-12-18T09:25:13.716Z,0.275
2022-12-18T09:26:13.292Z,0.349
2022-12-18T09:27:13.908Z,0.409
2022-12-18T09:28:13.912Z,0.395
2022-12-18T09:29:13.428Z,0.449
2022-12-18T09:30:14.665Z,0.490
2022-12-18T09:31:14.373Z,0.524
2022-12-18T09:32:18.970Z,0.600
2022-12-18T09:33:13.775Z,0.671
2022-12-18T09:34:14.312Z,0.709
2022-12-18T09:35:14.169Z,0.779
2022-12-18T09:36:13.483Z,0.821
2022-12-18T09:37:14.151Z,0.888
2022-12-18T09:38:13.667Z,0.910
2022-12-18T09:39:13.585Z,0.970
2022-12-18T09:40:13.968Z,1
2022-12-18T09:41:13.505Z,1.049
2022-12-18T09:42:14.138Z,1.159
2022-12-18T09:43:28.121Z,1.182
2022-12-18T09:44:13.752Z,1.220
2022-12-18T09:45:14.180Z,1.259
2022-12-18T09:46:13.899Z,1.294
2022-12-18T09:47:13.655Z,1.383
2022-12-18T09:48:13.532Z,1.445
2022-12-18T09:49:14.351Z,1.456
2022-12-18T09:50:17.283Z,1.531
2022-12-18T09:51:14.157Z,1.554
2022-12-18T09:52:13.751Z,1.631
2022-12-18T09:53:13.415Z,1.675
2022-12-18T09:54:13.835Z,1.821
2022-12-18T09:55:13.725Z,1.822
2022-12-18T09:56:13.584Z,1.838
2022-12-18T09:57:14.276Z,1.873
2022-12-18T09:58:14.114Z,1.868
2022-12-18T09:59:13.733Z,1.917
2022-12-18T10:00:14.158Z,1.940
2022-12-18T10:01:14.876Z,2.009
2022-12-18T10:02:14.570Z,2.039
2022-12-18T10:03:13.417Z,2.131
2022-12-18T10:04:14.778Z,2.126
2022-12-18T10:05:13.674Z,2.137
2022-12-18T10:06:14.241Z,2.160
2022-12-18T10:07:13.832Z,2.165
2022-12-18T10:08:13.085Z,2.213
2022-12-18T10:09:13.393Z,2.234
2022-12-18T10:10:13.994Z,2.279
2022-12-18T10:11:13.525Z,2.355
2022-12-18T10:12:14.286Z,2.404
2022-12-18T10:13:14.050Z,2.454
2022-12-18T10:14:13.551Z,2.474
2022-12-18T10:15:14.612Z,2.470
2022-12-18T10:16:14.422Z,2.549
2022-12-18T10:17:14.416Z,2.575
2022-12-18T10:18:17.410Z,2.648
2022-12-18T10:19:14.606Z,2.703
2022-12-18T10:20:13.786Z,2.759
2022-12-18T10:21:13.709Z,2.785
2022-12-18T10:22:13.161Z,2.805
2022-12-18T10:23:14.086Z,2.838
2022-12-18T10:24:13.989Z,2.879
2022-12-18T10:25:14.407Z,2.940
2022-12-18T10:26:13.801Z,3
2022-12-18T10:27:14.444Z,3.029
2022-12-18T10:28:14.139Z,3.065
2022-12-18T10:29:13.739Z,3.171
2022-12-18T10:30:14.692Z,3.165
2022-12-18T10:31:14.334Z,3.142
2022-12-18T10:32:14.225Z,3.160
2022-12-18T10:33:13.601Z,3.220
2022-12-18T10:34:13.241Z,3.265
2022-12-18T10:35:14.154Z,3.279
2022-12-18T10:36:13.419Z,3.321
2022-12-18T10:37:14.150Z,3.349
2022-12-18T10:38:13.652Z,3.424
2022-12-18T10:39:13.694Z,3.430
2022-12-18T10:40:19.851Z,3.484
2022-12-18T10:41:13.710Z,3.559
2022-12-18T10:42:13.759Z,3.599
2022-12-18T10:43:14.275Z,3.579
2022-12-18T10:44:14.176Z,3.579
2022-12-18T10:45:14.049Z,3.609
2022-12-18T10:46:13.761Z,3.615
2022-12-18T10:47:13.811Z,3.654
2022-12-18T10:48:14.122Z,3.648
2022-12-18T10:49:14.054Z,3.678
2022-12-18T10:50:13.770Z,3.724
2022-12-18T10:51:14.075Z,3.755
2022-12-18T10:52:13.275Z,3.834
2022-12-18T10:53:14.055Z,3.868
2022-12-18T10:54:13.789Z,3.867
2022-12-18T10:55:13.753Z,3.934
2022-12-18T10:56:13.903Z,4.079
2022-12-18T10:57:13.560Z,4.034
2022-12-18T10:58:14.401Z,4.005
2022-12-18T10:59:14.454Z,4
2022-12-18T11:00:14.913Z,4.059
2022-12-18T11:01:13.936Z,4.099
2022-12-18T11:02:13.968Z,4.114
2022-12-18T11:03:14.277Z,4.105
2022-12-18T11:04:14.099Z,4.131
2022-12-18T11:05:13.883Z,4.165
2022-12-18T11:06:13.656Z,4.215
2022-12-18T11:07:14.145Z,4.275
2022-12-18T11:08:13.782Z,4.322
2022-12-18T11:09:15.594Z,4.389
2022-12-18T11:10:14.083Z,4.394
2022-12-18T11:11:13.565Z,4.389
2022-12-18T11:12:14.363Z,4.420
2022-12-18T11:13:13.872Z,4.434
2022-12-18T11:14:13.102Z,4.474
2022-12-18T11:15:13.958Z,4.579
2022-12-18T11:16:13.511Z,4.590
2022-12-18T11:17:26.749Z,4.616
2022-12-18T11:18:13.795Z,4.579
2022-12-18T11:19:13.475Z,4.594
2022-12-18T11:20:14.091Z,4.614
2022-12-18T11:21:13.917Z,4.668
2022-12-18T11:22:13.497Z,4.693
2022-12-18T11:23:13.858Z,4.689
2022-12-18T11:24:13.764Z,4.668
2022-12-18T11:25:34.597Z,4.728
2022-12-18T11:26:13.983Z,4.755
2022-12-18T11:27:13.975Z,4.796
2022-12-18T11:28:13.799Z,4.867
2022-12-18T11:29:14.133Z,4.920
2022-12-18T11:30:13.836Z,4.954
2022-12-18T11:31:13.485Z,5.030
2022-12-18T11:32:14.064Z,5.045
2022-12-18T11:33:13.487Z,5.025
2022-12-18T11:34:29.246Z,5
2022-12-18T11:35:13.659Z,4.989
2022-12-18T11:36:13.134Z,5.019
2022-12-18T11:37:13.787Z,5.030
2022-12-18T11:38:13.669Z,5.085
2022-12-18T11:39:14.431Z,5.114
2022-12-18T11:40:13.886Z,5.131
2022-12-18T11:41:13.295Z,5.155
2022-12-18T11:42:13.761Z,5.214
2022-12-18T11:43:14.185Z,5.264
2022-12-18T11:44:14.051Z,5.349
2022-12-18T11:45:13.973Z,5.440
2022-12-18T11:46:19.144Z,5.514
2022-12-18T11:47:13.599Z,5.514
2022-12-18T11:48:18.985Z,5.519
2022-12-18T11:49:13.879Z,5.489
2022-12-18T11:50:13.503Z,5.489
2022-12-18T11:51:14.042Z,5.494
2022-12-18T11:52:18.464Z,5.534
2022-12-18T11:53:14.047Z,5.539
2022-12-18T11:54:13.532Z,5.494
2022-12-18T11:55:14.224Z,5.539
2022-12-18T11:56:13.875Z,5.620
2022-12-18T11:57:14.182Z,5.605
2022-12-18T11:58:14.091Z,5.545
2022-12-18T11:59:13.141Z,5.530
2022-12-18T12:00:19.373Z,5.505
2022-12-18T12:01:13.649Z,5.519
2022-12-18T12:02:13.579Z,5.534
2022-12-18T12:03:13.557Z,5.505
2022-12-18T12:04:13.525Z,5.460
2022-12-18T12:05:14.283Z,5.414
2022-12-18T12:06:13.614Z,5.414
2022-12-18T12:07:14.618Z,5.454
2022-12-18T12:08:12.751Z,5.525
2022-12-18T12:09:14.290Z,5.474
2022-12-18T12:10:13.857Z,5.469
2022-12-18T12:11:13.106Z,5.474
2022-12-18T12:12:13.553Z,5.519
2022-12-18T12:13:13.711Z,5.590
2022-12-18T12:14:13.913Z,5.574
2022-12-18T12:15:13.444Z,5.590
2022-12-18T12:16:13.870Z,5.574
2022-12-18T12:17:13.606Z,5.638
2022-12-18T12:18:13.971Z,5.627
2022-12-18T12:19:13.412Z,5.534
2022-12-18T12:20:14.187Z,5.519
2022-12-18T12:21:14.721Z,5.474
2022-12-18T12:22:14.116Z,5.469
2022-12-18T12:23:13.675Z,5.449
2022-12-18T12:24:14.436Z,5.449
2022-12-18T12:25:14.171Z,5.480
2022-12-18T12:26:32.607Z,5.469
2022-12-18T12:27:13.574Z,5.489
2022-12-18T12:28:13.500Z,5.489
2022-12-18T12:29:19.419Z,5.454
2022-12-18T12:30:32.416Z,5.454
2022-12-18T12:31:13.800Z,5.460
2022-12-18T12:32:13.397Z,5.5
2022-12-18T12:33:14.265Z,5.505
2022-12-18T12:34:13.522Z,5.565
2022-12-18T12:35:14.574Z,5.554
2022-12-18T12:36:13.802Z,5.545
2022-12-18T12:37:13.314Z,5.525
2022-12-18T12:38:13.834Z,5.510
2022-12-18T12:39:13.551Z,5.485
2022-12-18T12:40:48.452Z,5.659
2022-12-18T12:41:13.527Z,5.739
2022-12-18T12:42:14.241Z,5.599
2022-12-18T12:43:13.732Z,5.5
2022-12-18T12:44:13.570Z,5.526
2022-12-18T12:45:14.422Z,5.518
2022-12-18T12:46:14.347Z,5.559
2022-12-18T12:47:13.262Z,5.550
2022-12-18T12:48:14.289Z,5.480
2022-12-18T12:49:13.536Z,5.455
2022-12-18T12:50:14.294Z,5.443
2022-12-18T12:51:14.201Z,5.428
2022-12-18T12:52:13.726Z,5.467
2022-12-18T12:53:13.114Z,5.462
2022-12-18T12:54:14.106Z,5.488
2022-12-18T12:55:15.007Z,5.514